createdAt,value
2019-03-12T00:01:19.082Z,2.85
2019-03-12T00:03:48.338Z,2.85
2019-03-12T00:06:17.631Z,2.84
2019-03-12T00:08:47.013Z,2.84
2019-03-12T00:11:16.596Z,2.81
2019-03-12T00:13:45.988Z,2.77
2019-03-12T00:16:15.308Z,2.83
2019-03-12T00:18:44.735Z,2.93
2019-03-12T00:21:14.512Z,2.91
2019-03-12T00:23:44.302Z,2.84
2019-03-12T00:26:13.811Z,2.80
2019-03-12T00:28:43.219Z,2.81
2019-03-12T00:31:12.531Z,2.85
2019-03-12T00:33:42.284Z,2.90
2019-03-12T00:36:11.949Z,2.89
2019-03-12T00:38:41.419Z,2.80
2019-03-12T00:41:10.753Z,2.76
2019-03-12T00:43:40.445Z,2.77
2019-03-12T00:46:09.761Z,2.87
2019-03-12T00:48:39.026Z,2.82
2019-03-12T00:51:08.539Z,2.89
2019-03-12T00:53:37.864Z,2.81
2019-03-12T00:56:07.152Z,2.84
2019-03-12T00:58:36.363Z,2.93
2019-03-12T01:01:05.643Z,2.81
2019-03-12T01:03:35.134Z,2.81
2019-03-12T01:06:04.390Z,2.81
2019-03-12T01:08:33.772Z,2.81
2019-03-12T01:11:03.153Z,2.91
2019-03-12T01:13:32.479Z,2.77
2019-03-12T01:16:01.859Z,2.74
2019-03-12T01:18:31.216Z,2.69
2019-03-12T01:21:00.645Z,2.62
2019-03-12T01:23:57.902Z,2.59
2019-03-12T01:26:27.986Z,2.62
2019-03-12T01:28:57.445Z,2.55
2019-03-12T01:31:27.037Z,2.66
2019-03-12T01:33:56.705Z,2.61
2019-03-12T01:39:59.592Z,2.67
2019-03-12T01:42:29.088Z,2.70
2019-03-12T01:44:58.424Z,2.77
2019-03-12T01:47:28.135Z,2.65
2019-03-12T01:49:57.486Z,2.61
2019-03-12T01:52:26.895Z,2.66
2019-03-12T01:54:56.560Z,2.62
2019-03-12T01:57:26.070Z,2.67
2019-03-12T01:59:55.417Z,2.68
2019-03-12T02:02:24.851Z,2.62
2019-03-12T02:04:54.216Z,2.67
2019-03-12T02:07:23.644Z,2.66
2019-03-12T02:09:52.999Z,2.64
2019-03-12T02:12:22.461Z,2.70
2019-03-12T02:14:51.839Z,2.71
2019-03-12T02:17:21.196Z,2.74
2019-03-12T02:19:50.625Z,2.66
2019-03-12T02:22:19.991Z,2.78
2019-03-12T02:24:52.958Z,2.71
2019-03-12T02:27:20.652Z,2.83
2019-03-12T02:29:50.057Z,2.74
2019-03-12T02:32:19.476Z,2.81
2019-03-12T02:34:48.856Z,2.74
2019-03-12T02:37:18.209Z,2.79
2019-03-12T02:39:47.916Z,2.70
2019-03-12T02:42:17.521Z,2.61
2019-03-12T02:44:46.903Z,2.65
2019-03-12T02:47:16.511Z,2.64
2019-03-12T02:49:45.898Z,2.73
2019-03-12T02:52:15.377Z,2.65
2019-03-12T02:54:44.758Z,2.66
2019-03-12T02:57:14.086Z,2.69
2019-03-12T02:59:43.762Z,2.62
2019-03-12T03:02:13.094Z,2.64
2019-03-12T03:04:42.471Z,2.75
2019-03-12T03:07:30.735Z,2.74
2019-03-12T03:10:00.434Z,2.65
2019-03-12T03:12:29.708Z,2.60
2019-03-12T03:14:59.089Z,2.62
2019-03-12T03:17:28.434Z,2.62
2019-03-12T03:19:57.856Z,2.61
2019-03-12T03:22:27.191Z,2.70
2019-03-12T03:24:56.549Z,2.59
2019-03-12T03:27:28.942Z,2.69
2019-03-12T03:29:56.954Z,2.78
2019-03-12T03:32:26.271Z,2.76
2019-03-12T03:34:55.663Z,2.76
2019-03-12T03:37:25.957Z,2.70
2019-03-12T03:39:55.280Z,2.66
2019-03-12T03:42:24.646Z,2.72
2019-03-12T03:44:54.232Z,2.76
2019-03-12T03:47:23.630Z,2.81
2019-03-12T03:49:52.944Z,2.70
2019-03-12T03:52:22.306Z,2.78
2019-03-12T03:54:51.629Z,2.71
2019-03-12T03:57:20.994Z,2.83
2019-03-12T03:59:50.315Z,2.74
2019-03-12T04:02:20.597Z,2.78
2019-03-12T04:04:49.933Z,2.75
2019-03-12T04:07:19.302Z,2.62
2019-03-12T04:09:48.907Z,2.72
2019-03-12T04:12:18.290Z,2.71
2019-03-12T04:14:47.594Z,2.66
2019-03-12T04:17:16.967Z,2.56
2019-03-12T04:19:46.466Z,2.52
2019-03-12T04:22:15.892Z,2.64
2019-03-12T04:24:45.246Z,2.58
2019-03-12T04:27:14.625Z,2.57
2019-03-12T04:29:43.943Z,2.55
2019-03-12T04:32:13.319Z,2.52
2019-03-12T04:34:43.527Z,2.60
2019-03-12T04:37:12.907Z,2.49
2019-03-12T04:39:42.231Z,2.60
2019-03-12T04:42:11.612Z,2.63
2019-03-12T04:44:40.937Z,2.59
2019-03-12T04:47:10.309Z,2.60
2019-03-12T04:49:39.916Z,2.58
2019-03-12T04:52:09.335Z,2.58
2019-03-12T04:54:38.648Z,2.56
2019-03-12T04:57:08.348Z,2.43
2019-03-12T04:59:37.680Z,2.54
2019-03-12T05:02:07.085Z,2.52
2019-03-12T05:04:36.423Z,2.50
2019-03-12T05:07:06.460Z,2.50
2019-03-12T05:09:47.632Z,2.50
2019-03-12T05:17:14.755Z,2.54
2019-03-12T05:27:53.177Z,2.59
2019-03-12T05:30:23.308Z,2.52
2019-03-12T05:32:53.662Z,2.50
2019-03-12T05:35:23.478Z,2.50
2019-03-12T05:37:53.551Z,2.53
2019-03-12T05:40:23.325Z,2.60
2019-03-12T05:42:53.049Z,2.63
2019-03-12T05:45:23.748Z,2.60
2019-03-12T05:47:53.691Z,2.62
2019-03-12T05:50:23.031Z,2.60
2019-03-12T05:52:53.815Z,2.55
2019-03-12T05:55:23.159Z,2.63
2019-03-12T05:57:52.569Z,2.66
2019-03-12T06:00:22.989Z,2.68
2019-03-12T06:02:52.313Z,2.69
2019-03-12T06:05:21.710Z,2.75
2019-03-12T06:07:51.329Z,2.77
2019-03-12T06:10:20.712Z,2.74
2019-03-12T06:12:50.045Z,2.68
2019-03-12T06:15:19.427Z,2.72
2019-03-12T06:17:48.784Z,2.78
2019-03-12T06:20:18.224Z,2.77
2019-03-12T06:22:47.693Z,2.74
2019-03-12T06:25:17.078Z,2.74
2019-03-12T06:27:46.421Z,2.88
2019-03-12T06:30:16.026Z,2.96
2019-03-12T06:32:58.260Z,2.87
2019-03-12T06:35:38.248Z,2.84
2019-03-12T06:38:22.004Z,2.86
2019-03-12T06:41:02.282Z,2.96
2019-03-12T06:43:59.466Z,3.08
2019-03-12T06:46:37.142Z,3.03
2019-03-12T06:49:20.378Z,3.13
2019-03-12T06:52:07.166Z,3.14
2019-03-12T06:55:10.579Z,3.15
2019-03-12T06:58:17.857Z,3.20
2019-03-12T07:01:07.913Z,3.28
2019-03-12T07:04:12.867Z,3.36
2019-03-12T07:07:17.220Z,3.43
2019-03-12T07:10:23.635Z,3.29
2019-03-12T07:13:27.846Z,3.30
2019-03-12T07:16:07.553Z,3.42
2019-03-12T07:18:53.049Z,3.38
2019-03-12T07:21:59.492Z,3.50
2019-03-12T07:24:37.982Z,3.73
2019-03-12T07:27:40.846Z,3.76
2019-03-12T07:30:28.114Z,3.79
2019-03-12T07:36:28.569Z,4.07
2019-03-12T07:39:15.333Z,4.03
2019-03-12T07:42:12.701Z,4.15
2019-03-12T07:45:13.201Z,4.33
2019-03-12T07:47:54.666Z,4.54
2019-03-12T07:50:49.110Z,4.74
2019-03-12T07:53:40.305Z,4.78
2019-03-12T07:56:34.592Z,4.87
2019-03-12T07:59:22.217Z,4.81
2019-03-12T08:02:09.169Z,4.60
2019-03-12T08:05:03.480Z,4.79
2019-03-12T08:07:50.184Z,4.80
2019-03-12T08:10:44.540Z,4.69
2019-03-12T08:13:35.649Z,4.69
2019-03-12T08:16:24.048Z,4.65
2019-03-12T08:19:24.341Z,4.70
2019-03-12T08:22:18.561Z,4.96
2019-03-12T08:24:59.200Z,5.08
2019-03-12T08:27:37.077Z,5.25
2019-03-12T08:30:32.159Z,5.56
2019-03-12T08:33:18.900Z,5.18
2019-03-12T08:35:53.956Z,5.35
2019-03-12T08:38:39.208Z,5.38
2019-03-12T08:41:25.861Z,5.65
2019-03-12T08:44:16.938Z,5.97
2019-03-12T08:47:03.754Z,5.85
2019-03-12T08:49:54.992Z,5.92
2019-03-12T08:52:49.591Z,5.90
2019-03-12T08:55:39.671Z,5.75
2019-03-12T08:58:30.123Z,5.70
2019-03-12T09:01:20.961Z,5.88
2019-03-12T09:04:27.673Z,6.35
2019-03-12T09:07:38.349Z,6.36
2019-03-12T09:10:21.546Z,6.36
2019-03-12T09:13:04.387Z,6.29
2019-03-12T09:15:58.532Z,5.98
2019-03-12T09:18:49.561Z,5.63
2019-03-12T09:21:39.439Z,5.28
2019-03-12T09:24:35.512Z,5.14
2019-03-12T09:27:25.955Z,5.08
2019-03-12T09:30:26.297Z,5.49
2019-03-12T09:33:23.844Z,6.10
2019-03-12T09:36:01.134Z,6.43
2019-03-12T09:38:49.404Z,6.95
2019-03-12T09:41:34.806Z,7.36
2019-03-12T09:44:34.990Z,7.88
2019-03-12T09:47:09.582Z,7.88
2019-03-12T09:49:58.072Z,7.58
2019-03-12T09:52:33.630Z,7.67
2019-03-12T09:55:21.978Z,7.88
2019-03-12T09:58:06.445Z,7.85
2019-03-12T10:01:02.637Z,7.86
2019-03-12T10:03:53.466Z,7.82
2019-03-12T10:07:05.871Z,7.65
2019-03-12T10:09:49.722Z,7.93
2019-03-12T10:12:41.578Z,8.34
2019-03-12T10:15:25.221Z,8.64
2019-03-12T10:18:17.350Z,8.06
2019-03-12T10:21:19.252Z,7.84
2019-03-12T10:24:13.400Z,7.71
2019-03-12T10:27:13.786Z,7.63
2019-03-12T10:30:14.751Z,7.35
2019-03-12T10:32:59.651Z,7.47
2019-03-12T10:35:50.390Z,7.85
2019-03-12T10:39:21.042Z,7.99
2019-03-12T10:42:38.216Z,7.67
2019-03-12T10:45:31.596Z,7.60
2019-03-12T10:47:57.368Z,7.83
2019-03-12T10:50:26.800Z,7.77
2019-03-12T10:53:13.186Z,8.17
2019-03-12T10:55:44.795Z,8.08
2019-03-12T10:58:16.993Z,7.86
2019-03-12T11:00:56.537Z,7.77
2019-03-12T11:03:29.090Z,7.95
2019-03-12T11:06:00.037Z,8.20
2019-03-12T11:08:29.493Z,8.27
2019-03-12T11:11:03.077Z,8.09
2019-03-12T11:13:33.942Z,8.09
2019-03-12T11:16:07.546Z,8.12
2019-03-12T11:18:37.162Z,8.27
2019-03-12T11:21:09.879Z,8.33
2019-03-12T11:23:39.187Z,8.02
2019-03-12T11:26:12.978Z,7.83
2019-03-12T11:28:45.462Z,8.18
2019-03-12T11:31:14.948Z,8.24
2019-03-12T11:34:33.720Z,8.24
2019-03-12T11:37:06.235Z,7.81
2019-03-12T11:39:36.757Z,8.09
2019-03-12T11:42:09.205Z,7.93
2019-03-12T11:44:38.554Z,8.01
2019-03-12T11:47:11.113Z,8.02
2019-03-12T11:49:42.930Z,7.82
2019-03-12T11:52:28.128Z,8.06
2019-03-12T11:54:55.552Z,8.11
2019-03-12T11:57:34.460Z,8.29
2019-03-12T12:00:10.040Z,8.59
2019-03-12T12:02:35.197Z,8.72
2019-03-12T12:05:04.530Z,8.72
2019-03-12T12:07:38.400Z,8.46
2019-03-12T12:10:05.838Z,8.37
2019-03-12T12:12:40.007Z,8.38
2019-03-12T12:15:08.845Z,8.32
2019-03-12T12:17:49.308Z,8.42
2019-03-12T12:20:28.712Z,8.46
2019-03-12T12:22:52.618Z,8.52
2019-03-12T12:25:21.959Z,8.44
2019-03-12T12:28:33.009Z,8.50
2019-03-12T12:31:02.377Z,8.57
2019-03-12T12:33:33.315Z,8.46
2019-03-12T12:36:02.996Z,8.47
2019-03-12T12:38:32.453Z,8.61
2019-03-12T12:41:02.049Z,8.74
2019-03-12T12:43:31.480Z,8.66
2019-03-12T12:46:00.818Z,8.64
2019-03-12T12:48:30.206Z,8.72
2019-03-12T12:51:03.354Z,8.80
2019-03-12T12:53:30.636Z,8.70
2019-03-12T12:55:59.978Z,8.41
2019-03-12T12:58:29.370Z,8.66
2019-03-12T13:00:58.838Z,8.68
2019-03-12T13:03:28.212Z,8.77
2019-03-12T13:05:57.545Z,8.73
2019-03-12T13:08:26.937Z,8.81
2019-03-12T13:10:56.560Z,8.90
2019-03-12T13:13:26.253Z,8.77
2019-03-12T13:15:55.587Z,8.99
2019-03-12T13:18:25.082Z,9.10
2019-03-12T13:20:56.627Z,9.17
2019-03-12T13:23:26.010Z,9.13
2019-03-12T13:25:57.743Z,9.17
2019-03-12T13:28:27.154Z,9.31
2019-03-12T13:30:56.525Z,9.31
2019-03-12T13:33:29.017Z,9.29
2019-03-12T13:35:58.355Z,9.28
2019-03-12T13:38:28.136Z,9.42
2019-03-12T13:41:03.027Z,9.48
2019-03-12T13:43:35.903Z,9.53
2019-03-12T13:46:07.601Z,9.37
2019-03-12T13:48:37.043Z,9.37
2019-03-12T13:51:06.960Z,9.69
2019-03-12T13:53:38.797Z,9.89
2019-03-12T13:56:11.135Z,10.03
2019-03-12T13:59:16.813Z,10.12
2019-03-12T14:01:46.340Z,10.04
2019-03-12T14:04:15.776Z,10.25
2019-03-12T14:06:45.221Z,10.28
2019-03-12T14:09:14.622Z,10.44
2019-03-12T14:11:44.130Z,10.69
2019-03-12T14:14:17.857Z,10.84
2019-03-12T14:16:47.305Z,11.03
2019-03-12T14:19:16.740Z,11.21
2019-03-12T14:21:46.303Z,11.41
2019-03-12T14:24:16.113Z,11.51
2019-03-12T14:26:55.110Z,11.62
2019-03-12T14:29:35.637Z,11.88
2019-03-12T14:32:07.084Z,11.68
2019-03-12T14:34:36.904Z,11.64
2019-03-12T14:37:06.549Z,11.87
2019-03-12T14:39:36.012Z,11.90
2019-03-12T14:42:06.361Z,12.09
2019-03-12T14:44:37.034Z,12.15
2019-03-12T14:47:06.489Z,12.33
2019-03-12T14:49:35.852Z,12.03
2019-03-12T14:52:12.304Z,12.05
2019-03-12T14:54:41.725Z,12.14
2019-03-12T14:57:11.374Z,12.44
2019-03-12T14:59:40.843Z,12.49
2019-03-12T15:02:10.734Z,12.61
2019-03-12T15:04:40.084Z,12.82
2019-03-12T15:07:09.479Z,13.10
2019-03-12T15:09:38.806Z,13.41
2019-03-12T15:12:11.458Z,13.86
2019-03-12T15:14:39.272Z,14.32
2019-03-12T15:17:08.647Z,14.54
2019-03-12T15:19:38.000Z,14.91
2019-03-12T15:22:07.431Z,15.74
2019-03-12T15:24:36.777Z,16.72
2019-03-12T15:27:06.163Z,17.96
2019-03-12T15:29:35.598Z,18.86
2019-03-12T15:32:05.093Z,18.28
2019-03-12T15:34:34.376Z,17.03
2019-03-12T15:37:03.757Z,15.74
2019-03-12T15:39:33.364Z,15.46
2019-03-12T15:42:02.791Z,15.55
2019-03-12T15:44:32.122Z,15.32
2019-03-12T15:47:01.499Z,14.75
2019-03-12T15:49:30.846Z,14.96
2019-03-12T15:52:00.229Z,15.76
2019-03-12T15:54:29.562Z,15.93
2019-03-12T15:56:58.948Z,15.39
2019-03-12T15:59:28.287Z,15.88
2019-03-12T16:01:57.942Z,16.05
2019-03-12T16:04:27.274Z,15.15
2019-03-12T16:07:01.401Z,14.28
2019-03-12T16:09:27.802Z,13.37
2019-03-12T16:11:57.178Z,12.67
2019-03-12T16:14:26.502Z,12.30
2019-03-12T16:16:55.862Z,12.06
2019-03-12T16:19:25.267Z,11.83
2019-03-12T16:21:54.693Z,11.58
2019-03-12T16:24:24.048Z,11.26
2019-03-12T16:26:53.405Z,11.00
2019-03-12T16:29:22.734Z,10.58
2019-03-12T16:31:52.109Z,10.53
2019-03-12T16:34:21.449Z,10.40
2019-03-12T16:36:50.840Z,10.44
2019-03-12T16:39:20.313Z,10.32
2019-03-12T16:41:49.706Z,10.26
2019-03-12T16:44:19.039Z,10.24
2019-03-12T16:46:48.390Z,10.15
2019-03-12T16:49:17.767Z,10.14
2019-03-12T16:51:47.108Z,10.10
2019-03-12T16:54:16.475Z,10.10
2019-03-12T16:56:45.906Z,10.08
2019-03-12T16:59:15.530Z,10.09
2019-03-12T17:01:44.897Z,10.00
2019-03-12T17:04:14.279Z,9.98
2019-03-12T17:06:43.606Z,9.97
2019-03-12T17:09:12.930Z,10.02
2019-03-12T17:11:42.328Z,9.97
2019-03-12T17:14:12.013Z,9.92
2019-03-12T17:16:41.870Z,9.93
2019-03-12T17:19:11.262Z,9.91
2019-03-12T17:21:41.041Z,9.88
2019-03-12T17:24:10.427Z,9.91
2019-03-12T17:26:39.794Z,9.88
2019-03-12T17:29:09.139Z,9.85
2019-03-12T17:31:38.506Z,9.80
2019-03-12T17:34:07.851Z,9.74
2019-03-12T17:36:37.267Z,9.69
2019-03-12T17:39:07.658Z,9.69
2019-03-12T17:41:37.115Z,9.60
2019-03-12T17:44:06.441Z,9.53
2019-03-12T17:46:35.805Z,9.42
2019-03-12T17:49:05.179Z,9.35
2019-03-12T17:51:34.559Z,9.25
2019-03-12T17:54:03.975Z,9.20
2019-03-12T17:56:33.383Z,9.10
2019-03-12T17:59:02.986Z,9.10
2019-03-12T18:01:32.348Z,9.04
2019-03-12T18:04:01.672Z,8.98
2019-03-12T18:06:31.082Z,8.99
2019-03-12T18:09:00.406Z,8.95
2019-03-12T18:11:29.799Z,8.96
2019-03-12T18:13:59.135Z,8.95
2019-03-12T18:16:40.446Z,8.92
2019-03-12T18:18:59.560Z,8.85
2019-03-12T18:21:29.047Z,8.77
2019-03-12T18:23:58.375Z,8.71
2019-03-12T18:26:27.775Z,8.73
2019-03-12T18:28:59.310Z,8.72
2019-03-12T18:31:28.494Z,8.72
2019-03-12T18:33:57.965Z,8.77
2019-03-12T18:36:27.363Z,8.77
2019-03-12T18:38:56.711Z,8.76
2019-03-12T18:41:26.084Z,8.72
2019-03-12T18:43:55.424Z,8.70
2019-03-12T18:46:25.080Z,8.66
2019-03-12T18:48:54.403Z,8.63
2019-03-12T18:51:23.799Z,8.58
2019-03-12T18:53:53.184Z,8.54
2019-03-12T18:56:22.583Z,8.51
2019-03-12T18:58:52.226Z,8.56
2019-03-12T19:01:21.596Z,8.55
2019-03-12T19:03:50.931Z,8.47
2019-03-12T19:06:20.594Z,8.39
2019-03-12T19:08:49.925Z,8.33
2019-03-12T19:11:19.412Z,8.26
2019-03-12T19:13:48.793Z,8.19
2019-03-12T19:16:18.140Z,8.16
2019-03-12T19:18:47.509Z,8.17
2019-03-12T19:21:16.885Z,8.13
2019-03-12T19:23:46.555Z,8.06
2019-03-12T19:26:16.151Z,8.05
2019-03-12T19:28:45.527Z,8.06
2019-03-12T19:31:27.692Z,8.04
2019-03-12T19:33:59.413Z,8.07
2019-03-12T19:36:31.122Z,8.02
2019-03-12T19:38:59.995Z,8.03
2019-03-12T19:41:29.620Z,8.01
2019-03-12T19:43:58.989Z,8.01
2019-03-12T19:46:28.343Z,7.92
2019-03-12T19:49:02.259Z,7.89
2019-03-12T19:51:31.590Z,7.89
2019-03-12T19:54:11.015Z,7.89
2019-03-12T19:56:40.352Z,7.91
2019-03-12T19:59:09.833Z,7.86
2019-03-12T20:01:40.481Z,7.87
2019-03-12T20:04:09.881Z,7.90
2019-03-12T20:06:39.321Z,7.95
2019-03-12T20:09:11.412Z,7.95
2019-03-12T20:11:56.271Z,7.91
2019-03-12T20:15:13.595Z,7.85
2019-03-12T20:18:19.698Z,7.84
2019-03-12T20:21:30.478Z,7.80
2019-03-12T20:24:53.751Z,7.83
2019-03-12T20:27:59.723Z,7.80
2019-03-12T20:31:31.712Z,7.75
2019-03-12T20:34:53.301Z,7.70
2019-03-12T20:38:15.201Z,7.63
2019-03-12T20:41:26.326Z,7.64
2019-03-12T20:44:38.325Z,7.65
2019-03-12T20:47:56.967Z,7.65
2019-03-12T20:51:06.089Z,7.66
2019-03-12T20:54:18.182Z,7.56
2019-03-12T20:57:46.252Z,7.61
2019-03-12T21:00:50.849Z,7.63
2019-03-12T21:04:14.739Z,7.67
2019-03-12T21:07:20.120Z,7.70
2019-03-12T21:10:51.007Z,7.59
2019-03-12T21:14:14.605Z,7.59
2019-03-12T21:17:35.167Z,7.66
2019-03-12T21:21:03.246Z,7.63
2019-03-12T21:24:40.758Z,7.58
2019-03-12T21:27:55.377Z,7.60
2019-03-12T21:30:27.286Z,7.60
2019-03-12T21:32:56.637Z,7.57
2019-03-12T21:35:26.041Z,7.56
2019-03-12T21:38:01.404Z,7.56
2019-03-12T21:40:32.582Z,7.54
2019-03-12T21:43:02.221Z,7.43
2019-03-12T21:45:31.763Z,7.44
2019-03-12T21:48:02.372Z,7.46
2019-03-12T21:50:32.091Z,7.47
2019-03-12T21:53:01.298Z,7.50
2019-03-12T21:55:32.278Z,7.55
2019-03-12T21:58:05.684Z,7.54
2019-03-12T22:00:39.044Z,7.51
2019-03-12T22:03:09.233Z,7.51
2019-03-12T22:05:39.200Z,7.56
2019-03-12T22:08:08.447Z,7.57
2019-03-12T22:10:37.840Z,7.48
2019-03-12T22:13:07.701Z,7.49
2019-03-12T22:15:36.981Z,7.54
2019-03-12T22:18:06.251Z,7.61
2019-03-12T22:20:35.569Z,7.66
2019-03-12T22:23:32.894Z,7.85
2019-03-12T22:26:02.201Z,7.92
2019-03-12T22:28:31.641Z,7.84
2019-03-12T22:31:02.165Z,7.80
2019-03-12T22:33:31.448Z,7.76
2019-03-12T22:36:00.992Z,7.73
2019-03-12T22:38:30.461Z,7.69
2019-03-12T22:40:59.653Z,7.76
2019-03-12T22:43:28.913Z,7.76
2019-03-12T22:45:58.443Z,7.80
2019-03-12T22:48:27.966Z,7.80
2019-03-12T22:50:57.146Z,7.86
2019-03-12T22:53:26.398Z,7.89
2019-03-12T22:55:55.586Z,7.96
2019-03-12T22:58:24.845Z,7.98
2019-03-12T23:00:55.405Z,8.05
2019-03-12T23:03:24.770Z,8.11
2019-03-12T23:05:53.955Z,8.17
2019-03-12T23:08:23.199Z,8.18
2019-03-12T23:10:52.393Z,8.23
2019-03-12T23:13:21.635Z,8.28
2019-03-12T23:15:50.823Z,8.27
2019-03-12T23:18:20.072Z,8.29
2019-03-12T23:20:49.273Z,8.34
2019-03-12T23:23:18.609Z,8.36
2019-03-12T23:25:47.908Z,8.29
2019-03-12T23:28:17.139Z,8.28
2019-03-12T23:30:48.234Z,8.33
2019-03-12T23:33:17.465Z,8.35
2019-03-12T23:35:46.641Z,8.33
2019-03-12T23:38:15.895Z,8.37
2019-03-12T23:40:47.091Z,8.42
2019-03-12T23:43:16.507Z,8.52
2019-03-12T23:45:45.990Z,8.53
2019-03-12T23:48:15.219Z,8.61
2019-03-12T23:50:44.398Z,8.58
2019-03-12T23:53:13.639Z,8.57
2019-03-12T23:55:42.815Z,8.57
2019-03-12T23:58:12.051Z,8.54
